Time;durP1;ratioP1;P1;durP2;ratioP2;P2;SDS_P1;SDS_P2;PMS_P1;PMS_P2;Temp;Humidity;BMP_temperature;BMP_pressure;BME280_temperature;BME280_humidity;BME280_pressure;Samples;Min_cycle;Max_cycle;Signal;HPM_P1;HPM_P2
2021/11/03 00:01:39;;;;;;;68.15;47.42;;;;;;;;;;5055496;28;20103;-86
2021/11/03 00:04:05;;;;;;;110.82;54.58;;;;;;;;;;5037341;28;20068;-85
2021/11/03 00:06:30;;;;;;;97.07;53.95;;;;;;;;;;5037549;28;20420;-86
2021/11/03 00:09:00;;;;;;;94.78;52.88;;;;;;;;;;5055301;28;20049;-86
2021/11/03 00:11:25;;;;;;;82.22;49.67;;;;;;;;;;5037466;28;20025;-86
2021/11/03 00:13:51;;;;;;;108.18;51.10;;;;;;;;;;5055186;28;20021;-85
2021/11/03 00:16:16;;;;;;;70.32;46.33;;;;;;;;;;5037316;28;20013;-85
2021/11/03 00:18:41;;;;;;;98.47;54.72;;;;;;;;;;5055235;28;20087;-85
2021/11/03 00:21:07;;;;;;;59.13;43.28;;;;;;;;;;5054783;28;20021;-85
2021/11/03 00:23:32;;;;;;;97.95;52.75;;;;;;;;;;5037230;28;20017;-85
2021/11/03 00:25:58;;;;;;;79.07;45.88;;;;;;;;;;5055074;28;20433;-86
2021/11/03 00:28:23;;;;;;;84.10;47.63;;;;;;;;;;5037128;28;20021;-85
2021/11/03 00:30:50;;;;;;;53.20;41.67;;;;;;;;;;5037026;28;20033;-86
2021/11/03 00:33:16;;;;;;;61.13;43.20;;;;;;;;;;5054851;28;20791;-86
2021/11/03 00:35:41;;;;;;;94.45;49.95;;;;;;;;;;5054770;28;20109;-86
2021/11/03 00:38:06;;;;;;;73.55;47.78;;;;;;;;;;5054655;28;20052;-86
2021/11/03 00:40:31;;;;;;;72.03;47.50;;;;;;;;;;5036867;28;20029;-86
2021/11/03 00:42:57;;;;;;;102.30;52.65;;;;;;;;;;5036180;28;20821;-86
2021/11/03 00:45:22;;;;;;;92.50;49.83;;;;;;;;;;5036883;28;20115;-86
2021/11/03 00:47:47;;;;;;;95.70;49.90;;;;;;;;;;5054628;28;20416;-86
2021/11/03 00:50:13;;;;;;;92.90;48.97;;;;;;;;;;5036600;28;20025;-86
2021/11/03 00:52:38;;;;;;;61.10;41.90;;;;;;;;;;5054393;28;20354;-86
2021/11/03 00:55:04;;;;;;;75.13;45.30;;;;;;;;;;5036544;28;20104;-86
2021/11/03 00:57:29;;;;;;;72.97;43.88;;;;;;;;;;5054340;28;20248;-86
2021/11/03 00:59:54;;;;;;;84.77;46.60;;;;;;;;;;5036627;28;20035;-86
2021/11/03 01:02:19;;;;;;;78.05;45.70;;;;;;;;;;5054368;28;20256;-86
2021/11/03 01:04:45;;;;;;;105.40;50.88;;;;;;;;;;5036213;28;20140;-86
2021/11/03 01:07:10;;;;;;;70.03;42.85;;;;;;;;;;5036564;28;20052;-86
2021/11/03 01:09:36;;;;;;;90.43;47.60;;;;;;;;;;5054032;28;20020;-86
2021/11/03 01:12:01;;;;;;;69.80;43.38;;;;;;;;;;5036131;28;20124;-86
2021/11/03 01:14:27;;;;;;;70.28;43.58;;;;;;;;;;5036099;28;20135;-86
2021/11/03 01:16:52;;;;;;;73.75;43.95;;;;;;;;;;5036334;28;20021;-86
2021/11/03 01:19:17;;;;;;;77.05;44.60;;;;;;;;;;5036194;28;20083;-86
2021/11/03 01:21:43;;;;;;;87.60;46.15;;;;;;;;;;5036086;28;20019;-86
2021/11/03 01:24:09;;;;;;;83.78;45.58;;;;;;;;;;5053688;28;20092;-86
2021/11/03 01:26:34;;;;;;;103.93;48.47;;;;;;;;;;5035942;28;20024;-86
2021/11/03 01:29:00;;;;;;;58.80;38.63;;;;;;;;;;5053873;28;20024;-86
2021/11/03 01:31:25;;;;;;;62.97;39.45;;;;;;;;;;5053678;28;20025;-86
2021/11/03 01:33:52;;;;;;;80.25;44.00;;;;;;;;;;5035872;28;20491;-86
2021/11/03 01:36:17;;;;;;;72.20;40.22;;;;;;;;;;5053627;28;20086;-86
2021/11/03 01:38:43;;;;;;;65.43;41.28;;;;;;;;;;5035810;28;20017;-86
2021/11/03 01:41:08;;;;;;;71.05;41.67;;;;;;;;;;5053762;28;20017;-86
2021/11/03 01:43:45;;;;;;;46.47;35.55;;;;;;;;;;5053770;28;20029;-86
2021/11/03 01:46:27;;;;;;;66.28;40.28;;;;;;;;;;5053111;28;20017;-86
2021/11/03 01:48:57;;;;;;;72.45;40.10;;;;;;;;;;5050878;28;20048;-86
2021/11/03 01:51:27;;;;;;;65.22;39.83;;;;;;;;;;5050289;28;20401;-86
2021/11/03 01:53:52;;;;;;;63.45;39.33;;;;;;;;;;5050373;28;20544;-86
2021/11/03 01:56:18;;;;;;;48.45;34.95;;;;;;;;;;5050536;28;20024;-86
2021/11/03 01:58:45;;;;;;;65.63;39.08;;;;;;;;;;5050549;28;20021;-86
2021/11/03 02:01:11;;;;;;;78.05;43.60;;;;;;;;;;5032376;28;20824;-86
2021/11/03 02:03:37;;;;;;;47.15;34.30;;;;;;;;;;5050224;28;20076;-86
2021/11/03 02:06:03;;;;;;;60.42;38.45;;;;;;;;;;5050303;28;20031;-86
2021/11/03 02:08:31;;;;;;;60.20;37.00;;;;;;;;;;5032191;28;20028;-86
2021/11/03 02:10:56;;;;;;;67.22;40.70;;;;;;;;;;5032289;28;20032;-86
2021/11/03 02:13:21;;;;;;;73.43;41.97;;;;;;;;;;5050328;28;20026;-86
2021/11/03 02:15:47;;;;;;;65.70;39.13;;;;;;;;;;5050313;28;20032;-86
2021/11/03 02:18:15;;;;;;;70.20;40.60;;;;;;;;;;5050215;28;20107;-86
2021/11/03 02:20:42;;;;;;;62.60;39.15;;;;;;;;;;5032106;28;20055;-86
2021/11/03 02:23:25;;;;;;;49.97;35.00;;;;;;;;;;5032346;28;20043;-86
2021/11/03 02:26:04;;;;;;;52.50;36.05;;;;;;;;;;5050294;28;20024;-86
2021/11/03 02:28:29;;;;;;;40.03;29.88;;;;;;;;;;5050148;28;20385;-86
2021/11/03 02:30:55;;;;;;;58.10;36.92;;;;;;;;;;5032061;28;20029;-86
2021/11/03 02:33:22;;;;;;;53.28;35.17;;;;;;;;;;5032249;28;20029;-86
2021/11/03 02:35:57;;;;;;;69.45;39.75;;;;;;;;;;5031875;28;20025;-86
2021/11/03 02:38:33;;;;;;;56.47;36.53;;;;;;;;;;5050040;28;20021;-86
2021/11/03 02:41:02;;;;;;;66.07;37.17;;;;;;;;;;5050493;28;20025;-86
2021/11/03 02:43:29;;;;;;;59.25;34.42;;;;;;;;;;5049896;28;20064;-86
2021/11/03 02:45:56;;;;;;;62.85;36.72;;;;;;;;;;5031957;28;20029;-86
2021/11/03 02:48:22;;;;;;;80.65;41.00;;;;;;;;;;5050063;28;20025;-85
2021/11/03 02:51:14;;;;;;;46.85;33.00;;;;;;;;;;5031760;28;20036;-85
2021/11/03 02:53:41;;;;;;;56.20;35.78;;;;;;;;;;5046705;28;20404;-86
2021/11/03 02:56:06;;;;;;;52.08;33.88;;;;;;;;;;5031759;28;20029;-85
2021/11/03 02:58:33;;;;;;;59.67;35.03;;;;;;;;;;5049759;28;20359;-86
2021/11/03 03:01:06;;;;;;;67.05;37.70;;;;;;;;;;5031753;28;20374;-85
2021/11/03 03:03:32;;;;;;;71.72;37.20;;;;;;;;;;5049604;28;20463;-85
2021/11/03 03:06:01;;;;;;;37.75;28.85;;;;;;;;;;5052146;28;20025;-85
2021/11/03 03:08:26;;;;;;;56.50;33.72;;;;;;;;;;5053528;28;20037;-85
2021/11/03 03:10:51;;;;;;;59.30;35.10;;;;;;;;;;5053355;28;20032;-85
2021/11/03 03:13:16;;;;;;;71.07;37.90;;;;;;;;;;5035111;28;20263;-85
2021/11/03 03:15:41;;;;;;;67.03;37.67;;;;;;;;;;5053247;28;20060;-86
2021/11/03 03:18:07;;;;;;;43.33;29.90;;;;;;;;;;5053324;28;20381;-85
2021/11/03 03:20:32;;;;;;;67.63;36.47;;;;;;;;;;5035452;28;20333;-85
2021/11/03 03:22:57;;;;;;;37.83;29.23;;;;;;;;;;5035463;28;20251;-86
2021/11/03 03:25:23;;;;;;;56.75;36.88;;;;;;;;;;5035121;28;20382;-86
2021/11/03 03:27:48;;;;;;;55.15;37.22;;;;;;;;;;5053291;28;20048;-85
2021/11/03 03:30:13;;;;;;;59.75;38.33;;;;;;;;;;5053059;28;20017;-86
2021/11/03 03:32:38;;;;;;;64.07;40.08;;;;;;;;;;5053056;28;20028;-86
2021/11/03 03:35:04;;;;;;;58.67;38.30;;;;;;;;;;5034869;28;20025;-86
2021/11/03 03:37:30;;;;;;;75.47;42.85;;;;;;;;;;5052873;28;20017;-86
2021/11/03 03:39:55;;;;;;;52.47;35.55;;;;;;;;;;5052709;28;20025;-86
2021/11/03 03:42:20;;;;;;;85.05;45.15;;;;;;;;;;5052776;28;20510;-86
2021/11/03 03:44:46;;;;;;;80.57;43.65;;;;;;;;;;5052771;28;20032;-86
2021/11/03 03:47:11;;;;;;;96.50;47.78;;;;;;;;;;5052602;28;20032;-85
2021/11/03 03:49:36;;;;;;;66.07;40.25;;;;;;;;;;5034641;28;20059;-85
2021/11/03 03:52:02;;;;;;;72.65;41.78;;;;;;;;;;5052466;28;20025;-86
2021/11/03 03:54:28;;;;;;;81.93;44.42;;;;;;;;;;5034481;28;20646;-86
2021/11/03 03:56:53;;;;;;;104.38;48.97;;;;;;;;;;5052619;28;20036;-85
2021/11/03 03:59:19;;;;;;;85.85;46.17;;;;;;;;;;5034549;28;20111;-86
2021/11/03 04:01:44;;;;;;;95.07;47.00;;;;;;;;;;5034650;28;20017;-86
2021/11/03 04:04:09;;;;;;;59.10;39.20;;;;;;;;;;5034409;28;20215;-86
2021/11/03 04:06:34;;;;;;;67.22;41.70;;;;;;;;;;5034305;28;20260;-85
2021/11/03 04:09:00;;;;;;;54.40;35.95;;;;;;;;;;5052230;28;20099;-86
2021/11/03 04:11:25;;;;;;;103.27;49.33;;;;;;;;;;5052080;28;20045;-86
2021/11/03 04:13:50;;;;;;;51.08;36.72;;;;;;;;;;5034333;28;20274;-86
2021/11/03 04:16:16;;;;;;;84.13;44.30;;;;;;;;;;5051331;28;20025;-86
2021/11/03 04:18:41;;;;;;;64.07;39.55;;;;;;;;;;5033851;28;20259;-86
2021/11/03 04:21:06;;;;;;;51.35;35.38;;;;;;;;;;5033945;28;20036;-86
2021/11/03 04:23:32;;;;;;;79.18;44.50;;;;;;;;;;5052136;28;20060;-86
2021/11/03 04:25:57;;;;;;;70.45;42.42;;;;;;;;;;5033920;28;20021;-86
2021/11/03 04:28:22;;;;;;;68.18;41.00;;;;;;;;;;5051849;28;20076;-86
2021/11/03 04:30:48;;;;;;;79.57;45.13;;;;;;;;;;5033788;28;20116;-86
2021/11/03 04:33:13;;;;;;;52.22;36.28;;;;;;;;;;5051782;28;20056;-86
2021/11/03 04:35:39;;;;;;;91.50;44.95;;;;;;;;;;5051675;28;20028;-86
2021/11/03 04:38:04;;;;;;;78.30;43.38;;;;;;;;;;5033726;28;20465;-86
2021/11/03 04:40:30;;;;;;;80.00;45.00;;;;;;;;;;5033774;28;20020;-86
2021/11/03 04:42:55;;;;;;;73.47;42.45;;;;;;;;;;5051541;28;20036;-86
2021/11/03 04:45:21;;;;;;;82.80;44.83;;;;;;;;;;5051631;28;20061;-86
2021/11/03 04:47:47;;;;;;;65.35;39.47;;;;;;;;;;5051675;28;20017;-86
2021/11/03 04:50:14;;;;;;;82.82;44.38;;;;;;;;;;5033596;28;20025;-86
2021/11/03 04:52:39;;;;;;;61.22;37.83;;;;;;;;;;5033209;28;20029;-86
2021/11/03 04:55:05;;;;;;;92.05;44.72;;;;;;;;;;5051249;28;20477;-86
2021/11/03 04:57:31;;;;;;;81.63;42.90;;;;;;;;;;5051150;28;20020;-86
2021/11/03 04:59:57;;;;;;;98.07;46.30;;;;;;;;;;5051149;28;20017;-85
2021/11/03 05:02:22;;;;;;;72.00;40.78;;;;;;;;;;5033201;28;20528;-85
2021/11/03 05:04:47;;;;;;;67.80;41.13;;;;;;;;;;5033157;28;20057;-85
2021/11/03 05:07:12;;;;;;;101.53;47.80;;;;;;;;;;5051100;28;20021;-85
2021/11/03 05:09:38;;;;;;;113.20;48.83;;;;;;;;;;5051210;28;20036;-86
2021/11/03 05:12:03;;;;;;;66.03;39.88;;;;;;;;;;5033180;28;20037;-86
2021/11/03 05:14:28;;;;;;;93.50;46.40;;;;;;;;;;5050958;28;20051;-86
2021/11/03 05:16:53;;;;;;;74.95;42.65;;;;;;;;;;5051139;28;20465;-86
2021/11/03 05:19:20;;;;;;;79.13;43.70;;;;;;;;;;5062176;28;20029;-86
2021/11/03 05:21:46;;;;;;;80.55;43.90;;;;;;;;;;5052224;28;20058;-86
2021/11/03 05:24:11;;;;;;;73.93;43.15;;;;;;;;;;5052802;28;20029;-85
2021/11/03 05:26:36;;;;;;;88.03;44.67;;;;;;;;;;5070887;28;20488;-86
2021/11/03 05:29:02;;;;;;;88.75;46.17;;;;;;;;;;5052327;28;20297;-85
2021/11/03 05:31:27;;;;;;;96.85;44.38;;;;;;;;;;5052730;28;20040;-85
2021/11/03 05:33:53;;;;;;;87.93;46.75;;;;;;;;;;5070707;28;20024;-85
2021/11/03 05:36:20;;;;;;;99.85;47.13;;;;;;;;;;5052625;28;20021;-85
2021/11/03 05:38:45;;;;;;;59.70;39.47;;;;;;;;;;5035183;28;20020;-86
2021/11/03 05:41:10;;;;;;;90.80;45.47;;;;;;;;;;5039722;28;20017;-85
2021/11/03 05:43:35;;;;;;;59.17;39.00;;;;;;;;;;5032611;28;20082;-85
2021/11/03 05:46:01;;;;;;;77.43;44.33;;;;;;;;;;5050207;28;20075;-85
2021/11/03 05:48:27;;;;;;;96.03;46.67;;;;;;;;;;5050523;28;20040;-86
2021/11/03 05:50:53;;;;;;;51.30;37.10;;;;;;;;;;5031886;28;20278;-86
2021/11/03 05:53:20;;;;;;;85.63;45.40;;;;;;;;;;5050083;28;20025;-86
2021/11/03 05:55:45;;;;;;;74.72;41.53;;;;;;;;;;5031948;28;20395;-86
2021/11/03 05:58:10;;;;;;;91.00;45.30;;;;;;;;;;5032000;28;20017;-86
2021/11/03 06:00:37;;;;;;;85.82;43.80;;;;;;;;;;5032282;28;20020;-86
2021/11/03 06:03:05;;;;;;;97.00;46.75;;;;;;;;;;5049847;28;20057;-86
2021/11/03 06:05:30;;;;;;;83.97;43.42;;;;;;;;;;5032286;28;20021;-86
2021/11/03 06:08:00;;;;;;;80.30;42.17;;;;;;;;;;5031931;28;20048;-86
2021/11/03 06:10:31;;;;;;;76.65;42.03;;;;;;;;;;5049795;28;20082;-86
2021/11/03 06:12:59;;;;;;;77.50;42.03;;;;;;;;;;5049948;28;20036;-86
2021/11/03 06:15:28;;;;;;;96.05;45.85;;;;;;;;;;5049733;28;20123;-86
2021/11/03 06:17:53;;;;;;;94.13;45.72;;;;;;;;;;5049883;28;20025;-86
2021/11/03 06:20:21;;;;;;;71.85;39.60;;;;;;;;;;5049661;28;20047;-86
2021/11/03 06:22:49;;;;;;;90.93;44.75;;;;;;;;;;5031939;28;20024;-86
2021/11/03 06:25:16;;;;;;;88.10;45.58;;;;;;;;;;5049760;28;20078;-86
2021/11/03 06:27:42;;;;;;;95.63;45.25;;;;;;;;;;5032319;28;20386;-86
2021/11/03 06:30:08;;;;;;;93.20;45.83;;;;;;;;;;5050010;28;20042;-86
2021/11/03 06:32:35;;;;;;;105.68;48.70;;;;;;;;;;5031702;28;20433;-86
2021/11/03 06:35:00;;;;;;;53.03;37.20;;;;;;;;;;5031738;28;20127;-86
2021/11/03 06:37:26;;;;;;;98.20;46.03;;;;;;;;;;5033953;28;20255;-86
2021/11/03 06:39:52;;;;;;;85.00;42.67;;;;;;;;;;5070498;28;20031;-86
2021/11/03 06:42:17;;;;;;;49.15;35.55;;;;;;;;;;5074067;28;20016;-86
2021/11/03 06:44:42;;;;;;;54.30;36.97;;;;;;;;;;5055603;28;20457;-86
2021/11/03 06:47:08;;;;;;;73.40;41.63;;;;;;;;;;5073956;28;20266;-85
2021/11/03 06:49:33;;;;;;;80.00;42.95;;;;;;;;;;5055676;28;20017;-86
2021/11/03 06:51:58;;;;;;;72.50;41.97;;;;;;;;;;5055486;28;20480;-86
2021/11/03 06:54:23;;;;;;;86.50;42.30;;;;;;;;;;5055462;28;20270;-86
2021/11/03 06:56:49;;;;;;;107.47;47.05;;;;;;;;;;5055601;28;20016;-86
2021/11/03 06:59:18;;;;;;;80.85;41.25;;;;;;;;;;5049640;28;20051;-86
2021/11/03 07:01:44;;;;;;;90.10;41.45;;;;;;;;;;5035588;28;20536;-86
2021/11/03 07:04:11;;;;;;;45.33;32.75;;;;;;;;;;5052982;28;20495;-86
2021/11/03 07:06:39;;;;;;;86.07;39.92;;;;;;;;;;5053190;28;20036;-86
2021/11/03 07:09:08;;;;;;;64.40;38.65;;;;;;;;;;5035312;28;20036;-86
2021/11/03 07:11:34;;;;;;;80.00;41.10;;;;;;;;;;5052999;28;20110;-86
2021/11/03 07:13:59;;;;;;;42.15;32.25;;;;;;;;;;5035189;28;20025;-86
2021/11/03 07:16:25;;;;;;;45.85;31.83;;;;;;;;;;5050774;28;20476;-86
2021/11/03 07:18:50;;;;;;;45.65;32.20;;;;;;;;;;5015127;28;20021;-86
2021/11/03 07:21:15;;;;;;;58.83;34.58;;;;;;;;;;5014559;28;20382;-86
2021/11/03 07:23:40;;;;;;;63.53;36.08;;;;;;;;;;5033091;28;20026;-86
2021/11/03 07:26:06;;;;;;;64.72;35.85;;;;;;;;;;5015259;28;20499;-86
2021/11/03 07:28:31;;;;;;;46.90;33.45;;;;;;;;;;5015585;28;20770;-86
2021/11/03 07:30:59;;;;;;;54.60;34.95;;;;;;;;;;5032841;28;20604;-85
2021/11/03 07:33:27;;;;;;;68.57;36.30;;;;;;;;;;5014956;28;20045;-86
2021/11/03 07:35:54;;;;;;;72.75;38.35;;;;;;;;;;5032607;28;20029;-86
2021/11/03 07:38:19;;;;;;;47.55;32.83;;;;;;;;;;5032628;28;20027;-86
2021/11/03 07:40:47;;;;;;;77.72;39.08;;;;;;;;;;5014797;28;20474;-86
2021/11/03 07:43:14;;;;;;;96.40;41.17;;;;;;;;;;5032814;28;20105;-85
2021/11/03 07:45:39;;;;;;;90.15;41.75;;;;;;;;;;5047160;28;20025;-85
2021/11/03 07:48:05;;;;;;;72.60;37.50;;;;;;;;;;5072668;28;20372;-86
2021/11/03 07:50:33;;;;;;;86.82;40.08;;;;;;;;;;5054140;28;20487;-85
2021/11/03 07:52:59;;;;;;;58.70;36.13;;;;;;;;;;5044990;28;20048;-85
2021/11/03 07:55:25;;;;;;;60.03;36.22;;;;;;;;;;5055215;28;20021;-85
2021/11/03 07:57:50;;;;;;;54.83;35.42;;;;;;;;;;5053380;28;20024;-86
2021/11/03 08:00:26;;;;;;;58.92;36.90;;;;;;;;;;5034270;28;20017;-85
2021/11/03 08:02:52;;;;;;;75.43;39.10;;;;;;;;;;5052424;28;20032;-85
2021/11/03 08:05:17;;;;;;;46.35;31.63;;;;;;;;;;5052823;28;20037;-85
2021/11/03 08:07:42;;;;;;;57.43;35.13;;;;;;;;;;5034663;28;20060;-85
2021/11/03 08:10:13;;;;;;;66.72;39.10;;;;;;;;;;5034526;28;20346;-85
2021/11/03 08:12:39;;;;;;;76.93;40.53;;;;;;;;;;5052432;28;20033;-85
2021/11/03 08:15:04;;;;;;;66.65;39.40;;;;;;;;;;5034266;28;20031;-85
2021/11/03 08:17:31;;;;;;;76.45;37.75;;;;;;;;;;5034421;28;20035;-85
2021/11/03 08:19:58;;;;;;;63.15;37.38;;;;;;;;;;5034432;28;20017;-85
2021/11/03 08:22:24;;;;;;;71.82;37.15;;;;;;;;;;5034456;28;20025;-85
2021/11/03 08:24:53;;;;;;;66.93;36.00;;;;;;;;;;5052618;28;20654;-85
2021/11/03 08:27:18;;;;;;;49.72;33.10;;;;;;;;;;5034344;28;20029;-85
2021/11/03 08:29:44;;;;;;;56.80;36.05;;;;;;;;;;5035317;28;20021;-85
2021/11/03 08:32:12;;;;;;;52.88;32.70;;;;;;;;;;5035870;28;20039;-85
2021/11/03 08:34:37;;;;;;;71.18;38.03;;;;;;;;;;5054412;28;20013;-85
2021/11/03 08:37:09;;;;;;;72.38;38.85;;;;;;;;;;5034464;28;20036;-85
2021/11/03 08:39:35;;;;;;;68.25;36.72;;;;;;;;;;5051979;28;20033;-85
2021/11/03 08:42:00;;;;;;;53.58;33.03;;;;;;;;;;5052011;28;20513;-85
2021/11/03 08:44:27;;;;;;;56.50;34.58;;;;;;;;;;5033903;28;20139;-85
2021/11/03 08:46:53;;;;;;;60.28;34.42;;;;;;;;;;5033637;28;20075;-85
2021/11/03 08:49:18;;;;;;;44.80;32.80;;;;;;;;;;5033843;28;20423;-85
2021/11/03 08:51:43;;;;;;;52.57;34.97;;;;;;;;;;5051502;28;20090;-85
2021/11/03 08:54:08;;;;;;;47.80;32.13;;;;;;;;;;5051572;28;20259;-85
2021/11/03 08:56:36;;;;;;;43.70;31.37;;;;;;;;;;5052308;28;20347;-85
2021/11/03 08:59:03;;;;;;;57.28;35.95;;;;;;;;;;5033743;28;20278;-85
2021/11/03 09:01:28;;;;;;;56.75;36.55;;;;;;;;;;5051625;28;20035;-85
2021/11/03 09:03:54;;;;;;;55.92;36.83;;;;;;;;;;5051597;28;20061;-85
2021/11/03 09:06:19;;;;;;;60.13;37.57;;;;;;;;;;5034771;28;20027;-85
2021/11/03 09:08:49;;;;;;;45.80;33.47;;;;;;;;;;5052110;28;20251;-85
2021/11/03 09:11:14;;;;;;;45.13;31.55;;;;;;;;;;5033549;28;20060;-85
2021/11/03 09:13:39;;;;;;;53.67;35.03;;;;;;;;;;5051559;28;20053;-85
2021/11/03 09:16:05;;;;;;;55.57;35.17;;;;;;;;;;5033388;28;20028;-85
2021/11/03 09:18:31;;;;;;;58.25;33.40;;;;;;;;;;5033151;28;20287;-85
2021/11/03 09:20:57;;;;;;;49.97;33.67;;;;;;;;;;5032991;28;20025;-85
2021/11/03 09:23:23;;;;;;;58.13;35.40;;;;;;;;;;5051270;28;20070;-85
2021/11/03 09:25:50;;;;;;;64.25;36.00;;;;;;;;;;5032833;28;20021;-85
2021/11/03 09:28:16;;;;;;;53.30;33.55;;;;;;;;;;5051282;28;20021;-85
2021/11/03 09:30:41;;;;;;;45.40;32.08;;;;;;;;;;5032923;28;20032;-85
2021/11/03 09:33:08;;;;;;;39.70;31.02;;;;;;;;;;5032864;28;20127;-85
2021/11/03 09:35:36;;;;;;;45.22;33.28;;;;;;;;;;5033201;28;20484;-85
2021/11/03 09:38:02;;;;;;;41.25;30.95;;;;;;;;;;5032917;28;20029;-85
2021/11/03 09:40:29;;;;;;;49.75;34.42;;;;;;;;;;5050695;28;20527;-85
2021/11/03 09:42:55;;;;;;;42.15;32.10;;;;;;;;;;5032842;28;20108;-85
2021/11/03 09:45:23;;;;;;;49.15;35.13;;;;;;;;;;5050794;28;20135;-85
2021/11/03 09:47:59;;;;;;;60.25;36.97;;;;;;;;;;5036963;28;20017;-85
2021/11/03 09:50:25;;;;;;;48.42;34.63;;;;;;;;;;5050507;28;20473;-85
2021/11/03 09:52:58;;;;;;;60.05;37.28;;;;;;;;;;5032612;28;20131;-85
2021/11/03 09:55:29;;;;;;;52.13;36.33;;;;;;;;;;5032846;28;20025;-85
2021/11/03 09:58:13;;;;;;;46.75;34.20;;;;;;;;;;5050802;28;20522;-85
2021/11/03 10:00:52;;;;;;;50.42;35.70;;;;;;;;;;5050537;28;20104;-85
2021/11/03 10:03:17;;;;;;;59.88;39.25;;;;;;;;;;5050388;28;20056;-85
2021/11/03 10:05:46;;;;;;;50.80;36.40;;;;;;;;;;5050762;28;20021;-85
2021/11/03 10:08:22;;;;;;;52.88;36.95;;;;;;;;;;5050713;28;20592;-85
2021/11/03 10:10:54;;;;;;;60.53;40.78;;;;;;;;;;5050505;28;20163;-85
2021/11/03 10:13:20;;;;;;;58.35;38.92;;;;;;;;;;5050701;28;20029;-85
2021/11/03 10:15:54;;;;;;;54.13;37.77;;;;;;;;;;5054377;28;20020;-85
2021/11/03 10:18:20;;;;;;;52.97;37.67;;;;;;;;;;5038774;28;20021;-85
2021/11/03 10:21:05;;;;;;;58.25;39.63;;;;;;;;;;5039556;28;20100;-85
2021/11/03 10:23:32;;;;;;;62.25;41.63;;;;;;;;;;5009556;28;20388;-85
2021/11/03 10:26:05;;;;;;;62.78;42.25;;;;;;;;;;5057192;28;20385;-85
2021/11/03 10:28:33;;;;;;;64.38;41.75;;;;;;;;;;5057251;28;20071;-85
2021/11/03 10:30:59;;;;;;;59.38;39.65;;;;;;;;;;5040307;28;20051;-85
2021/11/03 10:33:29;;;;;;;57.40;39.70;;;;;;;;;;5057301;28;20017;-85
2021/11/03 10:35:57;;;;;;;55.42;40.13;;;;;;;;;;5039091;28;20037;-85
2021/11/03 10:38:24;;;;;;;59.90;39.83;;;;;;;;;;5039470;28;20025;-85
2021/11/03 10:41:05;;;;;;;54.15;39.30;;;;;;;;;;5057444;28;20027;-86
2021/11/03 10:43:30;;;;;;;55.80;38.55;;;;;;;;;;5040295;28;20473;-85
2021/11/03 10:45:57;;;;;;;51.47;37.97;;;;;;;;;;5039036;28;20116;-85
2021/11/03 10:48:24;;;;;;;54.00;39.45;;;;;;;;;;5039243;28;20452;-85
2021/11/03 10:50:56;;;;;;;48.40;36.45;;;;;;;;;;5038776;28;20017;-85
2021/11/03 10:53:21;;;;;;;47.25;35.90;;;;;;;;;;5056829;28;20045;-85
2021/11/03 10:56:05;;;;;;;56.15;40.13;;;;;;;;;;5039227;28;20044;-85
2021/11/03 10:58:30;;;;;;;52.63;38.00;;;;;;;;;;5057257;28;20636;-85
2021/11/03 11:01:07;;;;;;;54.40;40.78;;;;;;;;;;5059346;28;20069;-85
2021/11/03 11:03:36;;;;;;;47.83;36.90;;;;;;;;;;5038357;28;20095;-85
2021/11/03 11:06:07;;;;;;;47.72;36.95;;;;;;;;;;5037910;28;20693;-85
2021/11/03 11:08:32;;;;;;;44.47;34.35;;;;;;;;;;5036112;28;20032;-85
2021/11/03 11:11:00;;;;;;;46.03;36.70;;;;;;;;;;5035354;28;20021;-86
2021/11/03 11:13:28;;;;;;;44.00;35.58;;;;;;;;;;5037116;28;20029;-85
2021/11/03 11:15:55;;;;;;;45.83;36.60;;;;;;;;;;5053481;28;20169;-85
2021/11/03 11:18:31;;;;;;;46.53;36.22;;;;;;;;;;5053431;28;20021;-85
2021/11/03 11:20:59;;;;;;;45.10;36.20;;;;;;;;;;5035253;28;20439;-85
2021/11/03 11:23:27;;;;;;;47.30;37.50;;;;;;;;;;5053569;28;20515;-85
2021/11/03 11:26:01;;;;;;;47.85;38.33;;;;;;;;;;5038035;28;20032;-85
2021/11/03 11:28:30;;;;;;;46.17;36.80;;;;;;;;;;5035322;28;20033;-85
2021/11/03 11:30:58;;;;;;;44.35;35.65;;;;;;;;;;5035059;28;20067;-85
2021/11/03 11:33:25;;;;;;;41.63;36.50;;;;;;;;;;5035087;28;20025;-85
2021/11/03 11:36:16;;;;;;;49.70;38.53;;;;;;;;;;5034935;28;20116;-85
2021/11/03 11:39:01;;;;;;;44.88;36.63;;;;;;;;;;5053279;28;20029;-85
2021/11/03 11:41:31;;;;;;;39.33;35.03;;;;;;;;;;5036230;28;20055;-85
2021/11/03 11:44:06;;;;;;;43.38;36.95;;;;;;;;;;5034855;28;20025;-85
2021/11/03 11:46:32;;;;;;;45.05;36.75;;;;;;;;;;5052836;28;20025;-85
2021/11/03 11:48:59;;;;;;;40.58;35.50;;;;;;;;;;5035169;28;20659;-85
2021/11/03 11:51:27;;;;;;;42.92;33.08;;;;;;;;;;5034658;28;20029;-85
2021/11/03 11:53:55;;;;;;;35.78;29.08;;;;;;;;;;5035172;28;20022;-85
2021/11/03 11:56:23;;;;;;;32.95;29.00;;;;;;;;;;5052773;28;20029;-85
2021/11/03 11:58:51;;;;;;;33.47;29.70;;;;;;;;;;5052807;28;20659;-86
2021/11/03 12:01:18;;;;;;;38.42;33.22;;;;;;;;;;5034393;28;20124;-85
2021/11/03 12:03:45;;;;;;;37.28;33.20;;;;;;;;;;5035494;28;20131;-85
2021/11/03 12:06:10;;;;;;;39.83;33.22;;;;;;;;;;5037308;28;20017;-85
2021/11/03 12:08:55;;;;;;;37.25;31.30;;;;;;;;;;5038181;28;20043;-85
2021/11/03 12:11:27;;;;;;;41.15;36.13;;;;;;;;;;5055339;28;20522;-85
2021/11/03 12:14:12;;;;;;;45.55;35.83;;;;;;;;;;5055370;28;20017;-85
2021/11/03 12:17:04;;;;;;;40.70;32.33;;;;;;;;;;5055375;28;20037;-85
2021/11/03 12:19:38;;;;;;;43.03;34.20;;;;;;;;;;5031509;28;20382;-85
2021/11/03 12:22:05;;;;;;;41.65;34.55;;;;;;;;;;5055199;28;20021;-85
2021/11/03 12:24:32;;;;;;;37.33;33.22;;;;;;;;;;5038279;28;20020;-85
2021/11/03 12:27:16;;;;;;;44.53;35.67;;;;;;;;;;5055078;28;20021;-85
2021/11/03 12:29:41;;;;;;;37.00;31.65;;;;;;;;;;5055168;28;20035;-85
2021/11/03 12:32:20;;;;;;;37.72;32.38;;;;;;;;;;5037144;28;20029;-85
2021/11/03 12:34:45;;;;;;;39.45;32.75;;;;;;;;;;5055077;28;20032;-85
2021/11/03 12:37:10;;;;;;;39.07;31.97;;;;;;;;;;5054539;28;20025;-85
2021/11/03 12:39:41;;;;;;;40.58;33.58;;;;;;;;;;5036877;28;20264;-85
2021/11/03 12:42:13;;;;;;;38.95;32.63;;;;;;;;;;5054776;28;20029;-85
2021/11/03 12:44:43;;;;;;;41.10;33.40;;;;;;;;;;5054930;28;20580;-85
2021/11/03 12:47:20;;;;;;;38.70;31.15;;;;;;;;;;5036932;28;20025;-85
2021/11/03 12:49:57;;;;;;;33.92;30.10;;;;;;;;;;5054728;28;20025;-85
2021/11/03 12:52:26;;;;;;;34.72;29.02;;;;;;;;;;5036510;28;20036;-85
2021/11/03 12:54:52;;;;;;;34.85;27.48;;;;;;;;;;5039099;28;20473;-85
2021/11/03 12:57:22;;;;;;;32.17;26.55;;;;;;;;;;5036723;28;20032;-86
2021/11/03 12:59:57;;;;;;;32.70;26.58;;;;;;;;;;5054523;28;20028;-85
2021/11/03 13:02:26;;;;;;;29.52;25.98;;;;;;;;;;5036572;28;20089;-85
2021/11/03 13:04:59;;;;;;;31.90;25.95;;;;;;;;;;5054141;28;20048;-85
2021/11/03 13:07:37;;;;;;;34.88;27.42;;;;;;;;;;5036502;28;20489;-85
2021/11/03 13:10:07;;;;;;;33.90;28.45;;;;;;;;;;5038234;28;20111;-86
2021/11/03 13:12:36;;;;;;;33.28;27.63;;;;;;;;;;5054204;28;20055;-86
2021/11/03 13:15:11;;;;;;;29.52;25.73;;;;;;;;;;5054328;28;20024;-86
2021/11/03 13:17:44;;;;;;;29.90;24.23;;;;;;;;;;5036387;28;20104;-86
2021/11/03 13:20:19;;;;;;;32.72;25.58;;;;;;;;;;5036341;28;20021;-86
2021/11/03 13:22:48;;;;;;;29.35;25.23;;;;;;;;;;5054192;28;20019;-86
2021/11/03 13:25:19;;;;;;;32.05;25.27;;;;;;;;;;5037056;28;20049;-86
2021/11/03 13:27:44;;;;;;;34.25;24.80;;;;;;;;;;5036289;28;20059;-85
2021/11/03 13:30:21;;;;;;;30.95;24.35;;;;;;;;;;5036233;28;20100;-86
2021/11/03 13:32:58;;;;;;;29.23;23.48;;;;;;;;;;5053686;28;20481;-86
2021/11/03 13:35:25;;;;;;;32.00;25.25;;;;;;;;;;5036275;28;20452;-85
2021/11/03 13:37:53;;;;;;;28.65;23.88;;;;;;;;;;5039512;28;20043;-86
2021/11/03 13:40:21;;;;;;;28.05;22.95;;;;;;;;;;5035776;28;20013;-86
2021/11/03 13:42:56;;;;;;;27.10;22.42;;;;;;;;;;5036134;28;20044;-85
2021/11/03 13:45:24;;;;;;;26.88;22.63;;;;;;;;;;5035928;28;20028;-86
2021/11/03 13:48:01;;;;;;;30.67;23.70;;;;;;;;;;5036045;28;20021;-85
2021/11/03 13:50:36;;;;;;;31.35;23.63;;;;;;;;;;5035567;28;20053;-86
2021/11/03 13:53:07;;;;;;;30.52;22.90;;;;;;;;;;5038453;28;20025;-85
2021/11/03 13:55:38;;;;;;;27.58;22.98;;;;;;;;;;5035648;28;20013;-86
2021/11/03 13:58:19;;;;;;;31.95;24.50;;;;;;;;;;5035810;28;20060;-85
2021/11/03 14:00:55;;;;;;;26.20;21.93;;;;;;;;;;5036026;28;20539;-86
2021/11/03 14:03:24;;;;;;;27.27;21.90;;;;;;;;;;5035610;28;20056;-86
2021/11/03 14:05:50;;;;;;;28.45;23.45;;;;;;;;;;5035607;28;20017;-86
2021/11/03 14:08:25;;;;;;;29.55;22.30;;;;;;;;;;5054225;28;20032;-86
2021/11/03 14:10:51;;;;;;;30.98;23.15;;;;;;;;;;5035583;28;20393;-86
2021/11/03 14:13:16;;;;;;;26.67;21.70;;;;;;;;;;5035559;28;20079;-86
2021/11/03 14:15:41;;;;;;;28.40;22.37;;;;;;;;;;5035599;28;20993;-86
2021/11/03 14:18:09;;;;;;;33.20;24.73;;;;;;;;;;5035856;28;20279;-86
2021/11/03 14:20:39;;;;;;;28.17;23.08;;;;;;;;;;5053482;28;20258;-86